createdAt,value
2022-10-18T00:01:39.885Z,95932.72
2022-10-18T00:04:08.662Z,95921.69
2022-10-18T00:06:42.585Z,95920.06
2022-10-18T00:09:15.189Z,95910.94
2022-10-18T00:11:46.179Z,95903.13
2022-10-18T00:14:14.777Z,95906.34
2022-10-18T00:16:43.224Z,95897.72
2022-10-18T00:19:11.811Z,95896.97
2022-10-18T00:21:42.261Z,95898.78
2022-10-18T00:24:10.860Z,95896.16
2022-10-18T00:26:39.613Z,95891.97
2022-10-18T00:29:08.389Z,95886.16
2022-10-18T00:31:39.736Z,95891.09
2022-10-18T00:34:13.070Z,95886.72
2022-10-18T00:36:44.655Z,95884.00
2022-10-18T00:39:21.264Z,95886.97
2022-10-18T00:41:51.768Z,95875.56
2022-10-18T00:45:15.624Z,95880.81
2022-10-18T00:47:57.070Z,95880.25
2022-10-18T00:50:29.026Z,95867.53
2022-10-18T00:53:02.703Z,95867.31
2022-10-18T00:55:34.874Z,95854.75
2022-10-18T00:58:05.081Z,95863.03
2022-10-18T01:00:35.048Z,95861.53
2022-10-18T01:03:04.014Z,95860.75
2022-10-18T01:05:33.760Z,95860.44
2022-10-18T01:08:32.746Z,95863.78
2022-10-18T01:11:37.448Z,95864.72
2022-10-18T01:14:35.417Z,95864.44
2022-10-18T01:17:19.976Z,95857.03
2022-10-18T01:21:19.966Z,95860.53
2022-10-18T01:24:32.455Z,95863.50
2022-10-18T01:27:45.398Z,95857.69
2022-10-18T01:30:39.561Z,95845.06
2022-10-18T01:33:21.639Z,95846.78
2022-10-18T01:35:58.117Z,95843.69
2022-10-18T01:38:31.309Z,95841.25
2022-10-18T01:41:02.440Z,95831.78
2022-10-18T01:43:59.835Z,95845.63
2022-10-18T01:46:31.085Z,95843.56
2022-10-18T01:49:00.978Z,95839.75
2022-10-18T01:51:32.625Z,95836.28
2022-10-18T01:54:02.450Z,95838.59
2022-10-18T01:56:46.618Z,95838.94
2022-10-18T01:59:42.857Z,95838.34
2022-10-18T02:02:43.990Z,95838.25
2022-10-18T02:05:24.220Z,95838.09
2022-10-18T02:08:12.523Z,95826.25
2022-10-18T02:10:57.132Z,95833.84
2022-10-18T02:13:31.754Z,95835.94
2022-10-18T02:16:09.299Z,95834.28
2022-10-18T02:18:46.492Z,95833.13
2022-10-18T02:21:21.152Z,95829.59
2022-10-18T02:23:50.683Z,95818.59
2022-10-18T02:26:44.603Z,95829.59
2022-10-18T02:29:14.219Z,95833.75
2022-10-18T02:31:47.765Z,95840.53
2022-10-18T02:34:23.680Z,95840.09
2022-10-18T02:36:56.224Z,95842.28
2022-10-18T02:39:32.075Z,95842.28
2022-10-18T02:42:00.725Z,95837.78
2022-10-18T02:44:29.309Z,95830.69
2022-10-18T02:46:58.015Z,95838.41
2022-10-18T02:49:28.531Z,95829.41
2022-10-18T02:52:46.624Z,95825.06
2022-10-18T02:55:15.310Z,95837.91
2022-10-18T02:57:44.089Z,95842.78
2022-10-18T03:00:14.377Z,95834.97
2022-10-18T03:02:42.886Z,95832.22
2022-10-18T03:05:12.913Z,95838.09
2022-10-18T03:07:41.855Z,95835.78
2022-10-18T03:10:11.046Z,95840.59
2022-10-18T03:12:39.825Z,95829.81
2022-10-18T03:15:09.582Z,95826.28
2022-10-18T03:17:38.597Z,95832.41
2022-10-18T03:20:08.993Z,95841.88
2022-10-18T03:22:39.212Z,95846.69
2022-10-18T03:25:08.714Z,95840.16
2022-10-18T03:27:37.554Z,95837.00
2022-10-18T03:30:07.447Z,95843.81
2022-10-18T03:32:36.315Z,95834.75
2022-10-18T03:35:05.966Z,95838.31
2022-10-18T03:37:35.610Z,95847.31
2022-10-18T03:40:08.100Z,95846.47
2022-10-18T03:42:52.676Z,95840.44
2022-10-18T03:45:21.737Z,95840.31
2022-10-18T03:47:50.564Z,95844.28
2022-10-18T03:50:19.723Z,95838.16
2022-10-18T03:52:52.220Z,95846.78
2022-10-18T03:55:34.697Z,95837.69
2022-10-18T03:58:03.505Z,95852.31
2022-10-18T04:00:32.514Z,95849.69
2022-10-18T04:03:02.319Z,95845.81
2022-10-18T04:05:31.704Z,95840.03
2022-10-18T04:08:00.642Z,95852.00
2022-10-18T04:10:29.496Z,95839.84
2022-10-18T04:12:59.887Z,95845.91
2022-10-18T04:15:28.729Z,95837.16
2022-10-18T04:17:58.656Z,95841.16
2022-10-18T04:20:28.070Z,95844.53
2022-10-18T04:22:58.193Z,95834.88
2022-10-18T04:25:27.368Z,95850.72
2022-10-18T04:27:56.360Z,95845.72
2022-10-18T04:30:26.630Z,95843.31
2022-10-18T04:32:55.496Z,95840.09
2022-10-18T04:35:26.353Z,95841.06
2022-10-18T04:37:55.624Z,95840.72
2022-10-18T04:40:24.564Z,95840.03
2022-10-18T04:42:53.460Z,95834.19
2022-10-18T04:45:22.152Z,95835.47
2022-10-18T04:47:52.620Z,95831.25
2022-10-18T04:50:21.498Z,95839.66
2022-10-18T04:55:24.424Z,95834.03
2022-10-18T04:57:54.225Z,95827.22
2022-10-18T05:00:23.266Z,95832.03
2022-10-18T05:02:59.163Z,95827.66
2022-10-18T05:05:49.730Z,95828.19
2022-10-18T05:08:16.998Z,95830.63
2022-10-18T05:10:45.803Z,95829.34
2022-10-18T05:13:39.358Z,95822.13
2022-10-18T05:16:09.296Z,95820.97
2022-10-18T05:18:39.834Z,95825.06
2022-10-18T05:21:08.915Z,95826.91
2022-10-18T05:23:37.721Z,95829.72
2022-10-18T05:26:09.158Z,95836.63
2022-10-18T05:28:40.432Z,95819.28
2022-10-18T05:31:12.508Z,95830.91
2022-10-18T05:33:42.701Z,95830.06
2022-10-18T05:36:11.992Z,95829.19
2022-10-18T05:38:43.431Z,95841.88
2022-10-18T05:41:13.684Z,95840.50
2022-10-18T05:43:42.919Z,95836.50
2022-10-18T05:46:15.301Z,95829.78
2022-10-18T05:48:51.429Z,95831.00
2022-10-18T05:51:20.603Z,95830.38
2022-10-18T05:54:14.953Z,95825.56
2022-10-18T05:56:43.800Z,95825.25
2022-10-18T05:59:12.597Z,95824.72
2022-10-18T06:01:42.949Z,95828.75
2022-10-18T06:04:18.481Z,95826.97
2022-10-18T06:06:47.124Z,95826.94
2022-10-18T06:09:15.727Z,95825.22
2022-10-18T06:11:44.256Z,95817.25
2022-10-18T06:14:12.772Z,95824.00
2022-10-18T06:16:41.557Z,95827.72
2022-10-18T06:19:36.990Z,95826.88
2022-10-18T06:22:30.032Z,95820.59
2022-10-18T06:24:58.648Z,95828.72
2022-10-18T06:27:27.552Z,95832.44
2022-10-18T06:29:56.398Z,95827.50
2022-10-18T06:32:25.394Z,95826.72
2022-10-18T06:34:55.550Z,95818.19
2022-10-18T06:37:24.473Z,95822.00
2022-10-18T06:39:52.948Z,95830.03
2022-10-18T06:42:22.687Z,95825.16
2022-10-18T06:44:51.853Z,95824.78
2022-10-18T06:47:20.595Z,95831.34
2022-10-18T06:49:49.220Z,95834.09
2022-10-18T06:52:25.730Z,95821.75
2022-10-18T06:54:54.590Z,95826.78
2022-10-18T06:57:23.263Z,95826.34
2022-10-18T06:59:52.079Z,95827.50
2022-10-18T07:02:20.781Z,95819.34
2022-10-18T07:04:49.273Z,95831.84
2022-10-18T07:07:21.239Z,95824.97
2022-10-18T07:09:49.962Z,95813.81
2022-10-18T07:12:19.601Z,95812.09
2022-10-18T07:14:48.577Z,95816.53
2022-10-18T07:17:17.278Z,95809.66
2022-10-18T07:19:45.968Z,95811.47
2022-10-18T07:22:14.615Z,95804.09
2022-10-18T07:24:44.490Z,95800.88
2022-10-18T07:27:39.085Z,95802.22
2022-10-18T07:30:10.219Z,95793.22
2022-10-18T07:32:39.271Z,95793.91
2022-10-18T07:35:08.918Z,95783.63
2022-10-18T07:37:37.645Z,95783.00
2022-10-18T07:40:09.809Z,95779.91
2022-10-18T07:42:38.284Z,95767.75
2022-10-18T07:45:07.630Z,95779.06
2022-10-18T07:47:36.496Z,95770.97
2022-10-18T07:50:05.545Z,95769.44
2022-10-18T07:52:34.052Z,95769.00
2022-10-18T07:55:02.562Z,95768.44
2022-10-18T07:57:32.747Z,95772.44
2022-10-18T08:00:01.492Z,95771.88
2022-10-18T08:02:30.046Z,95765.63
2022-10-18T08:04:58.473Z,95762.03
2022-10-18T08:07:34.728Z,95753.94
2022-10-18T08:10:03.345Z,95759.88
2022-10-18T08:12:39.203Z,95752.16
2022-10-18T08:15:08.893Z,95754.31
2022-10-18T08:17:37.364Z,95759.00
2022-10-18T08:20:12.327Z,95745.41
2022-10-18T08:22:59.091Z,95737.81
2022-10-18T08:25:29.036Z,95734.72
2022-10-18T08:27:59.436Z,95736.88
2022-10-18T08:30:27.895Z,95734.72
2022-10-18T08:32:56.366Z,95722.53
2022-10-18T08:35:24.840Z,95719.31
2022-10-18T08:37:53.375Z,95709.69
2022-10-18T08:40:21.850Z,95702.06
2022-10-18T08:43:21.568Z,95706.56
2022-10-18T08:46:18.362Z,95693.56
2022-10-18T08:48:51.236Z,95688.53
2022-10-18T08:51:34.470Z,95688.00
2022-10-18T08:54:11.671Z,95689.88
2022-10-18T08:56:44.325Z,95689.88
2022-10-18T08:59:15.163Z,95681.56
2022-10-18T09:02:02.804Z,95685.28
2022-10-18T09:04:47.720Z,95685.84
2022-10-18T09:08:02.663Z,95677.84
2022-10-18T09:10:45.492Z,95673.50
2022-10-18T09:14:04.625Z,95672.50
2022-10-18T09:16:46.857Z,95667.13
2022-10-18T09:19:32.914Z,95668.88
2022-10-18T09:22:13.172Z,95663.72
2022-10-18T09:24:47.651Z,95663.88
2022-10-18T09:27:20.224Z,95651.69
2022-10-18T09:30:08.531Z,95656.47
2022-10-18T09:32:52.429Z,95650.41
2022-10-18T09:35:28.644Z,95655.44
2022-10-18T09:38:06.701Z,95655.47
2022-10-18T09:40:45.806Z,95647.28
2022-10-18T09:43:22.410Z,95655.28
2022-10-18T09:45:54.676Z,95649.50
2022-10-18T09:48:30.468Z,95647.66
2022-10-18T09:51:04.529Z,95639.38
2022-10-18T09:53:44.324Z,95633.81
2022-10-18T09:56:19.062Z,95637.25
2022-10-18T09:58:51.442Z,95626.38
2022-10-18T10:01:24.849Z,95630.13
2022-10-18T10:03:54.963Z,95618.19
2022-10-18T10:06:29.126Z,95617.91
2022-10-18T10:09:06.202Z,95618.41
2022-10-18T10:11:40.328Z,95605.19
2022-10-18T10:14:17.502Z,95609.91
2022-10-18T10:16:52.494Z,95594.28
2022-10-18T10:19:29.259Z,95588.72
2022-10-18T10:22:04.724Z,95592.69
2022-10-18T10:24:49.853Z,95574.09
2022-10-18T10:27:25.713Z,95570.13
2022-10-18T10:30:05.776Z,95570.13
2022-10-18T10:32:48.478Z,95565.38
2022-10-18T10:38:26.440Z,95550.50
2022-10-18T10:40:55.810Z,95545.16
2022-10-18T10:43:43.792Z,95544.38
2022-10-18T10:46:14.913Z,95529.72
2022-10-18T10:49:00.389Z,95531.03
2022-10-18T10:51:42.761Z,95521.16
2022-10-18T10:54:17.629Z,95523.53
2022-10-18T10:56:59.343Z,95519.25
2022-10-18T10:59:33.488Z,95508.09
2022-10-18T11:02:22.496Z,95497.44
2022-10-18T11:04:53.575Z,95499.31
2022-10-18T11:07:52.518Z,95497.38
2022-10-18T11:10:26.744Z,95501.63
2022-10-18T11:13:05.214Z,95485.59
2022-10-18T11:15:41.551Z,95484.19
2022-10-18T11:18:24.243Z,95483.63
2022-10-18T11:21:00.735Z,95486.91
2022-10-18T11:23:34.388Z,95471.72
2022-10-18T11:26:45.524Z,95469.25
2022-10-18T11:29:42.467Z,95461.81
2022-10-18T11:32:23.179Z,95456.78
2022-10-18T11:35:10.034Z,95449.59
2022-10-18T11:38:17.220Z,95438.69
2022-10-18T11:41:17.157Z,95432.44
2022-10-18T11:44:02.698Z,95420.56
2022-10-18T11:46:50.389Z,95414.69
2022-10-18T11:49:43.929Z,95419.31
2022-10-18T11:52:20.965Z,95415.03
2022-10-18T11:55:06.248Z,95412.03
2022-10-18T11:57:58.865Z,95409.31
2022-10-18T12:00:50.019Z,95396.53
2022-10-18T12:03:42.150Z,95386.19
2022-10-18T12:06:18.964Z,95378.97
2022-10-18T12:08:54.538Z,95377.44
2022-10-18T12:11:30.784Z,95366.97
2022-10-18T12:14:05.721Z,95376.59
2022-10-18T12:16:51.002Z,95364.03
2022-10-18T12:19:27.244Z,95363.38
2022-10-18T12:21:59.221Z,95348.81
2022-10-18T12:24:32.870Z,95350.91
2022-10-18T12:27:03.540Z,95349.75
2022-10-18T12:29:46.678Z,95354.16
2022-10-18T12:32:26.093Z,95342.25
2022-10-18T12:34:59.933Z,95347.53
2022-10-18T12:38:07.232Z,95331.66
2022-10-18T12:41:01.647Z,95329.00
2022-10-18T12:43:36.783Z,95324.41
2022-10-18T12:46:13.576Z,95321.94
2022-10-18T12:48:45.796Z,95319.28
2022-10-18T12:51:18.747Z,95314.31
2022-10-18T12:53:50.374Z,95305.81
2022-10-18T12:56:41.843Z,95302.34
2022-10-18T12:59:49.964Z,95305.28
2022-10-18T13:02:37.849Z,95308.31
2022-10-18T13:05:55.925Z,95300.81
2022-10-18T13:08:42.028Z,95303.34
2022-10-18T13:11:36.125Z,95296.31
2022-10-18T13:14:30.904Z,95287.91
2022-10-18T13:17:12.133Z,95286.53
2022-10-18T13:20:24.021Z,95285.16
2022-10-18T13:23:02.896Z,95283.53
2022-10-18T13:25:51.116Z,95278.34
2022-10-18T13:28:30.430Z,95270.75
2022-10-18T13:31:20.586Z,95278.88
2022-10-18T13:33:49.693Z,95267.81
2022-10-18T13:36:26.562Z,95267.25
2022-10-18T13:39:05.388Z,95253.25
2022-10-18T13:42:14.260Z,95253.78
2022-10-18T13:44:45.477Z,95249.38
2022-10-18T13:47:17.001Z,95239.44
2022-10-18T13:50:30.497Z,95241.94
2022-10-18T13:53:48.431Z,95243.00
2022-10-18T13:56:52.453Z,95236.50
2022-10-18T13:59:46.051Z,95236.84
2022-10-18T14:02:59.716Z,95234.06
2022-10-18T14:05:52.165Z,95234.84
2022-10-18T14:08:30.032Z,95234.78
2022-10-18T14:11:06.101Z,95233.22
2022-10-18T14:13:46.971Z,95227.66
2022-10-18T14:16:33.257Z,95227.91
2022-10-18T14:19:17.382Z,95229.72
2022-10-18T14:21:58.195Z,95220.47
2022-10-18T14:24:29.958Z,95226.19
2022-10-18T14:27:22.009Z,95218.09
2022-10-18T14:30:09.973Z,95214.16
2022-10-18T14:32:38.731Z,95218.88
2022-10-18T14:35:34.576Z,95210.19
2022-10-18T14:38:03.843Z,95213.41
2022-10-18T14:40:39.536Z,95206.72
2022-10-18T14:43:33.597Z,95211.69
2022-10-18T14:46:20.940Z,95203.19
2022-10-18T14:49:02.314Z,95203.03
2022-10-18T14:51:36.629Z,95191.16
2022-10-18T14:56:48.490Z,95193.63
2022-10-18T14:59:25.769Z,95197.56
2022-10-18T15:02:00.952Z,95186.03
2022-10-18T15:04:33.683Z,95185.38
2022-10-18T15:07:19.103Z,95177.88
2022-10-18T15:09:50.495Z,95174.03
2022-10-18T15:12:21.244Z,95170.44
2022-10-18T15:14:52.850Z,95179.38
2022-10-18T15:17:28.265Z,95174.69
2022-10-18T15:20:06.209Z,95174.28
2022-10-18T15:22:36.329Z,95166.94
2022-10-18T15:25:16.377Z,95168.34
2022-10-18T15:27:49.483Z,95158.91
2022-10-18T15:30:28.355Z,95159.00
2022-10-18T15:33:10.706Z,95160.06
2022-10-18T15:35:41.353Z,95154.25
2022-10-18T15:38:18.383Z,95168.84
2022-10-18T15:40:47.167Z,95167.47
2022-10-18T15:43:37.053Z,95180.44
2022-10-18T15:46:07.571Z,95179.81
2022-10-18T15:48:41.493Z,95178.66
2022-10-18T15:51:34.004Z,95181.25
2022-10-18T15:54:02.613Z,95181.47
2022-10-18T15:56:34.941Z,95181.63
2022-10-18T15:59:06.262Z,95189.22
2022-10-18T16:02:25.258Z,95183.56
2022-10-18T16:04:56.048Z,95179.34
2022-10-18T16:07:24.805Z,95197.28
2022-10-18T16:09:53.667Z,95187.97
2022-10-18T16:12:47.590Z,95194.72
2022-10-18T16:15:16.533Z,95199.19
2022-10-18T16:17:45.297Z,95198.84
2022-10-18T16:20:23.572Z,95191.03
2022-10-18T16:23:19.454Z,95200.47
2022-10-18T16:25:48.770Z,95195.81
2022-10-18T16:28:21.155Z,95192.41
2022-10-18T16:30:57.536Z,95204.13
2022-10-18T16:33:26.531Z,95201.88
2022-10-18T16:35:57.014Z,95211.53
2022-10-18T16:38:34.824Z,95209.56
2022-10-18T16:41:05.551Z,95209.00
2022-10-18T16:43:35.772Z,95211.16
2022-10-18T16:46:06.414Z,95211.91
2022-10-18T16:48:35.600Z,95222.75
2022-10-18T16:51:06.154Z,95218.19
2022-10-18T16:53:34.847Z,95225.06
2022-10-18T16:56:06.061Z,95225.94
2022-10-18T16:59:00.791Z,95227.34
2022-10-18T17:01:29.847Z,95223.69
2022-10-18T17:03:58.888Z,95222.56
2022-10-18T17:06:33.439Z,95216.91
2022-10-18T17:09:26.462Z,95221.38
2022-10-18T17:11:55.138Z,95223.41
2022-10-18T17:14:23.766Z,95219.63
2022-10-18T17:16:55.954Z,95229.03
2022-10-18T17:19:26.037Z,95220.63
2022-10-18T17:22:01.575Z,95228.47
2022-10-18T17:24:31.395Z,95221.25
2022-10-18T17:27:00.066Z,95228.06
2022-10-18T17:29:28.924Z,95222.81
2022-10-18T17:31:57.749Z,95216.06
2022-10-18T17:34:26.704Z,95222.81
2022-10-18T17:36:57.071Z,95232.00
2022-10-18T17:39:25.951Z,95226.31
2022-10-18T17:41:55.881Z,95230.19
2022-10-18T17:44:26.056Z,95214.50
2022-10-18T17:46:54.854Z,95213.44
2022-10-18T17:49:31.369Z,95225.00
2022-10-18T17:52:06.088Z,95226.19
2022-10-18T17:54:36.191Z,95225.59
2022-10-18T17:57:05.124Z,95231.72
2022-10-18T17:59:34.114Z,95233.44
2022-10-18T18:02:02.869Z,95227.94
2022-10-18T18:04:31.486Z,95229.72
2022-10-18T18:07:03.370Z,95225.31
2022-10-18T18:09:32.727Z,95227.19
2022-10-18T18:12:01.469Z,95221.25
2022-10-18T18:14:30.448Z,95221.06
2022-10-18T18:17:01.563Z,95218.16
2022-10-18T18:19:30.472Z,95210.47
2022-10-18T18:22:02.114Z,95213.41
2022-10-18T18:24:30.569Z,95220.78
2022-10-18T18:26:59.543Z,95208.53
2022-10-18T18:29:29.344Z,95219.63
2022-10-18T18:31:59.683Z,95221.75
2022-10-18T18:34:28.789Z,95207.50
2022-10-18T18:36:57.896Z,95207.63
2022-10-18T18:39:32.392Z,95213.88
2022-10-18T18:42:02.034Z,95215.06
2022-10-18T18:44:31.080Z,95213.94
2022-10-18T18:47:00.487Z,95219.66
2022-10-18T18:49:29.630Z,95216.09
2022-10-18T18:51:58.337Z,95214.94
2022-10-18T18:54:30.207Z,95214.38
2022-10-18T18:56:59.339Z,95208.09
2022-10-18T18:59:28.007Z,95213.72
2022-10-18T19:01:56.825Z,95218.06
2022-10-18T19:04:25.507Z,95214.69
2022-10-18T19:06:54.189Z,95212.94
2022-10-18T19:09:23.508Z,95214.53
2022-10-18T19:11:56.066Z,95219.75
2022-10-18T19:14:26.312Z,95218.59
2022-10-18T19:16:58.933Z,95213.06
2022-10-18T19:19:29.619Z,95216.31
2022-10-18T19:22:00.777Z,95212.34
2022-10-18T19:24:31.501Z,95203.91
2022-10-18T19:27:03.980Z,95213.97
2022-10-18T19:29:34.737Z,95203.50
2022-10-18T19:32:07.355Z,95206.09
2022-10-18T19:34:36.929Z,95205.31
2022-10-18T19:37:06.247Z,95196.41
2022-10-18T19:39:36.605Z,95201.47
2022-10-18T19:42:11.209Z,95192.22
2022-10-18T19:44:42.176Z,95198.94
2022-10-18T19:47:15.276Z,95191.78
2022-10-18T19:49:44.303Z,95189.78
2022-10-18T19:52:13.305Z,95190.06
2022-10-18T19:54:41.926Z,95191.69
2022-10-18T19:57:12.005Z,95192.47
2022-10-18T19:59:52.659Z,95188.91
2022-10-18T20:02:21.375Z,95189.69
2022-10-18T20:04:55.735Z,95197.97
2022-10-18T20:07:24.761Z,95187.75
2022-10-18T20:09:53.580Z,95202.59
2022-10-18T20:12:24.855Z,95189.38
2022-10-18T20:14:53.648Z,95194.19
2022-10-18T20:17:22.532Z,95191.16
2022-10-18T20:20:07.394Z,95188.56
2022-10-18T20:22:36.019Z,95184.22
2022-10-18T20:25:05.333Z,95185.22
2022-10-18T20:27:35.765Z,95188.41
2022-10-18T20:30:08.963Z,95184.03
2022-10-18T20:32:39.822Z,95186.41
2022-10-18T20:35:09.619Z,95187.00
2022-10-18T20:37:38.201Z,95186.22
2022-10-18T20:40:08.015Z,95191.44
2022-10-18T20:42:38.355Z,95187.03
2022-10-18T20:45:09.064Z,95181.44
2022-10-18T20:47:38.248Z,95184.44
2022-10-18T20:50:08.085Z,95188.63
2022-10-18T20:52:36.733Z,95185.44
2022-10-18T20:55:06.487Z,95179.44
2022-10-18T20:57:36.596Z,95176.22
2022-10-18T21:00:11.708Z,95169.03
2022-10-18T21:02:40.842Z,95171.41
2022-10-18T21:05:10.304Z,95173.63
2022-10-18T21:07:39.185Z,95173.22
2022-10-18T21:10:09.024Z,95175.44
2022-10-18T21:12:37.936Z,95163.22
2022-10-18T21:15:10.161Z,95169.81
2022-10-18T21:17:39.140Z,95160.59
2022-10-18T21:20:10.231Z,95156.00
2022-10-18T21:22:38.699Z,95152.22
2022-10-18T21:25:10.361Z,95146.56
2022-10-18T21:27:38.899Z,95141.59
2022-10-18T21:30:10.280Z,95136.41
2022-10-18T21:32:38.857Z,95134.56
2022-10-18T21:35:08.679Z,95130.56
2022-10-18T21:37:37.481Z,95132.59
2022-10-18T21:40:07.839Z,95124.97
2022-10-18T21:42:36.537Z,95120.16
2022-10-18T21:45:06.725Z,95108.56
2022-10-18T21:47:36.865Z,95115.59
2022-10-18T21:50:05.867Z,95103.78
2022-10-18T21:52:34.618Z,95112.38
2022-10-18T21:55:07.149Z,95107.38
2022-10-18T22:00:08.633Z,95102.97
2022-10-18T22:02:38.609Z,95099.97
2022-10-18T22:05:09.838Z,95102.78
2022-10-18T22:07:40.833Z,95104.16
2022-10-18T22:10:10.288Z,95107.59
2022-10-18T22:12:38.936Z,95108.97
2022-10-18T22:15:08.687Z,95094.94
2022-10-18T22:17:38.813Z,95094.97
2022-10-18T22:20:09.020Z,95093.75
2022-10-18T22:22:37.681Z,95090.16
2022-10-18T22:25:07.771Z,95095.34
2022-10-18T22:27:36.749Z,95092.53
2022-10-18T22:30:06.753Z,95082.94
2022-10-18T22:32:35.710Z,95070.53
2022-10-18T22:35:06.722Z,95077.75
2022-10-18T22:37:35.581Z,95068.72
2022-10-18T22:40:05.661Z,95073.34
2022-10-18T22:45:09.715Z,95069.75
2022-10-18T22:47:38.288Z,95073.13
2022-10-18T22:50:09.342Z,95055.91
2022-10-18T22:52:37.988Z,95067.91
2022-10-18T22:55:08.030Z,95049.72
2022-10-18T22:57:36.736Z,95060.53
2022-10-18T23:00:06.901Z,95050.94
2022-10-18T23:02:35.919Z,95049.13
2022-10-18T23:05:05.380Z,95045.72
2022-10-18T23:07:35.294Z,95054.69
2022-10-18T23:10:03.924Z,95054.09
2022-10-18T23:12:32.702Z,95048.09
2022-10-18T23:15:01.604Z,95050.47
2022-10-18T23:17:30.380Z,95047.09
2022-10-18T23:19:58.986Z,95047.69
2022-10-18T23:22:27.548Z,95042.50
2022-10-18T23:24:57.400Z,95039.50
2022-10-18T23:27:25.796Z,95041.28
2022-10-18T23:29:54.616Z,95039.88
2022-10-18T23:32:23.191Z,95036.03
2022-10-18T23:34:52.131Z,95040.41
2022-10-18T23:37:20.860Z,95030.63
2022-10-18T23:39:49.510Z,95026.97
2022-10-18T23:42:19.503Z,95020.22
2022-10-18T23:44:48.402Z,95025.25
2022-10-18T23:47:17.676Z,95023.66
2022-10-18T23:49:46.138Z,95019.19
2022-10-18T23:52:14.739Z,95022.41
2022-10-18T23:57:13.676Z,95020.78
2022-10-18T23:59:44.021Z,95008.44
